Palmerston North, New Zealand

12:19 PM NZST on September 02, 2015 (GMT +1200)
City Centre | | Change Station
CLOSE
Current Station
Personal Weather Station
Location: Palmerston North, MANAWATU
Elevation: 82 ft
Nearby Weather Stations

Elev 82 ft 40.35 °S, 175.62 °E | Updated 26 seconds ago

Scattered Clouds
Scattered Clouds
63.7 °F
Feels Like 63.7 °F
N
0.0
Wind Variable Wind from North
Gusts 0.7 mph

Today
High -- | Low -- °F
--% Chance of Precip.
Yesterday
High -- | Low -- °F
Precip. -- in
6:41 AM 5:54 PM
Waning Gibbous, 85% visible
Pressure 29.59 in
Visibility 18.6 miles
Clouds Few 3000 ft
Scattered Clouds 5000 ft
Dew Point 49 °F
Humidity 58%
Rainfall 0.00 in
Snow Depth Not available.
UV 5.0 out of 12
Pollen Not available.
Air Quality Not available.
Flu Activity Not available.
METAR NZOH 020000Z 33014KT 30KM FEW030 SCT050 15/10 Q1002 BECMG 33015G25KT
Pressure 29.59 in
Visibility 18.6 miles
Clouds Few 3000 ft
Scattered Clouds 5000 ft
Dew Point 49 °F
Humidity 58%
Rainfall 0.00 in
Snow Depth Not available.
UV 5.0 out of 12
Pollen Not available.
Air Quality Not available.
Flu Activity Not available.
METAR NZOH 020000Z 33014KT 30KM FEW030 SCT050 15/10 Q1002 BECMG 33015G25KT

10-Day Weather Forecast

×

Almanac

Astronomy

Sep. 02, 2015 Rise Set
Actual Time
Civil Twilight
Nautical Twilight
Astronomical Twilight
Moon
Length of Visible Light
Length of Day
Tomorrow will be .
, % of the Moon is Illuminated

Today's Extremes

Country Highs Country Lows

Community

WunderPhotos

Upload Photos

1,851,654 photos uploaded!

WunderBlogs® & News

Nearby

Air Quality

  Air Quality AQ Index Pollutant
Not available.

Snow Depth

Station Depth Elevation

Earthquake Activity

City Distance Mag. Time & Date
Minimum magnitude displayed is 2.5.

Coastal Water Temperatures

Place Temperature

Stations

Nearby Weather Stations

Station Location Temp. Windchill Dew Point Humidity Wind Precip. Elev Updated Type